sensor_id;sensor_type;location;lat;lon;timestamp;P1;durP1;ratioP1;P2;durP2;ratioP2
78561;SDS011;68963;52.138;5.446;2023-08-06T00:00:29;14.82;;;7.03;;
78561;SDS011;68963;52.138;5.446;2023-08-06T00:02:56;14.55;;;7.30;;
78561;SDS011;68963;52.138;5.446;2023-08-06T00:05:23;13.60;;;7.18;;
78561;SDS011;68963;52.138;5.446;2023-08-06T00:07:49;15.20;;;7.15;;
78561;SDS011;68963;52.138;5.446;2023-08-06T00:10:16;14.05;;;7.22;;
78561;SDS011;68963;52.138;5.446;2023-08-06T00:12:43;13.60;;;7.63;;
78561;SDS011;68963;52.138;5.446;2023-08-06T00:15:10;13.52;;;7.18;;
78561;SDS011;68963;52.138;5.446;2023-08-06T00:17:37;13.45;;;7.18;;
78561;SDS011;68963;52.138;5.446;2023-08-06T00:20:05;11.85;;;6.60;;
78561;SDS011;68963;52.138;5.446;2023-08-06T00:22:36;12.65;;;6.40;;
78561;SDS011;68963;52.138;5.446;2023-08-06T00:25:03;11.48;;;6.32;;
78561;SDS011;68963;52.138;5.446;2023-08-06T00:27:31;12.50;;;6.47;;
78561;SDS011;68963;52.138;5.446;2023-08-06T00:29:58;12.10;;;6.88;;
78561;SDS011;68963;52.138;5.446;2023-08-06T00:32:25;13.30;;;6.32;;
78561;SDS011;68963;52.138;5.446;2023-08-06T00:34:52;13.43;;;6.20;;
78561;SDS011;68963;52.138;5.446;2023-08-06T00:37:18;11.80;;;6.50;;
78561;SDS011;68963;52.138;5.446;2023-08-06T00:39:45;12.27;;;6.57;;
78561;SDS011;68963;52.138;5.446;2023-08-06T00:42:12;12.10;;;6.30;;
78561;SDS011;68963;52.138;5.446;2023-08-06T00:44:38;11.60;;;6.63;;
78561;SDS011;68963;52.138;5.446;2023-08-06T00:47:06;12.98;;;6.57;;
78561;SDS011;68963;52.138;5.446;2023-08-06T00:49:34;10.88;;;6.30;;
78561;SDS011;68963;52.138;5.446;2023-08-06T00:52:02;11.60;;;6.90;;
78561;SDS011;68963;52.138;5.446;2023-08-06T00:54:31;12.07;;;6.88;;
78561;SDS011;68963;52.138;5.446;2023-08-06T00:56:58;13.30;;;6.78;;
78561;SDS011;68963;52.138;5.446;2023-08-06T00:59:28;14.15;;;7.20;;
78561;SDS011;68963;52.138;5.446;2023-08-06T01:01:56;12.88;;;7.70;;
78561;SDS011;68963;52.138;5.446;2023-08-06T01:04:23;15.82;;;7.38;;
78561;SDS011;68963;52.138;5.446;2023-08-06T01:07:06;14.85;;;7.80;;
78561;SDS011;68963;52.138;5.446;2023-08-06T01:09:41;16.15;;;8.18;;
78561;SDS011;68963;52.138;5.446;2023-08-06T01:14:47;15.80;;;7.50;;
78561;SDS011;68963;52.138;5.446;2023-08-06T01:17:23;16.67;;;8.65;;
78561;SDS011;68963;52.138;5.446;2023-08-06T01:19:52;14.52;;;7.43;;
78561;SDS011;68963;52.138;5.446;2023-08-06T01:22:19;13.98;;;7.95;;
78561;SDS011;68963;52.138;5.446;2023-08-06T01:24:47;14.10;;;7.72;;
78561;SDS011;68963;52.138;5.446;2023-08-06T01:30:27;15.02;;;8.05;;
78561;SDS011;68963;52.138;5.446;2023-08-06T01:33:00;18.25;;;8.60;;
78561;SDS011;68963;52.138;5.446;2023-08-06T01:35:30;16.17;;;7.97;;
78561;SDS011;68963;52.138;5.446;2023-08-06T01:40:26;15.18;;;7.78;;
78561;SDS011;68963;52.138;5.446;2023-08-06T01:42:54;15.70;;;8.07;;
78561;SDS011;68963;52.138;5.446;2023-08-06T01:45:21;16.25;;;8.27;;
78561;SDS011;68963;52.138;5.446;2023-08-06T01:47:48;16.40;;;8.90;;
78561;SDS011;68963;52.138;5.446;2023-08-06T01:50:14;16.38;;;8.15;;
78561;SDS011;68963;52.138;5.446;2023-08-06T01:52:41;16.40;;;8.40;;
78561;SDS011;68963;52.138;5.446;2023-08-06T01:55:07;16.95;;;8.73;;
78561;SDS011;68963;52.138;5.446;2023-08-06T01:57:34;17.45;;;8.95;;
78561;SDS011;68963;52.138;5.446;2023-08-06T02:00:00;18.23;;;9.32;;
78561;SDS011;68963;52.138;5.446;2023-08-06T02:02:27;17.98;;;9.15;;
78561;SDS011;68963;52.138;5.446;2023-08-06T02:04:54;18.20;;;9.18;;
78561;SDS011;68963;52.138;5.446;2023-08-06T02:07:20;17.45;;;9.88;;
78561;SDS011;68963;52.138;5.446;2023-08-06T02:09:47;21.95;;;10.32;;
78561;SDS011;68963;52.138;5.446;2023-08-06T02:12:13;21.00;;;10.38;;
78561;SDS011;68963;52.138;5.446;2023-08-06T02:14:40;19.35;;;10.05;;
78561;SDS011;68963;52.138;5.446;2023-08-06T02:17:06;18.00;;;9.50;;
78561;SDS011;68963;52.138;5.446;2023-08-06T02:19:33;19.05;;;9.32;;
78561;SDS011;68963;52.138;5.446;2023-08-06T02:22:00;17.55;;;9.23;;
78561;SDS011;68963;52.138;5.446;2023-08-06T02:24:26;19.02;;;9.20;;
78561;SDS011;68963;52.138;5.446;2023-08-06T02:26:53;18.20;;;9.70;;
78561;SDS011;68963;52.138;5.446;2023-08-06T02:29:22;17.67;;;9.88;;
78561;SDS011;68963;52.138;5.446;2023-08-06T02:31:48;19.65;;;10.10;;
78561;SDS011;68963;52.138;5.446;2023-08-06T02:34:15;19.13;;;9.90;;
78561;SDS011;68963;52.138;5.446;2023-08-06T02:36:42;20.95;;;10.55;;
78561;SDS011;68963;52.138;5.446;2023-08-06T02:39:08;16.77;;;9.20;;
78561;SDS011;68963;52.138;5.446;2023-08-06T02:41:35;17.05;;;8.85;;
78561;SDS011;68963;52.138;5.446;2023-08-06T02:44:01;15.43;;;8.68;;
78561;SDS011;68963;52.138;5.446;2023-08-06T02:46:29;15.13;;;7.80;;
78561;SDS011;68963;52.138;5.446;2023-08-06T02:48:55;13.57;;;7.93;;
78561;SDS011;68963;52.138;5.446;2023-08-06T02:51:22;13.15;;;7.40;;
78561;SDS011;68963;52.138;5.446;2023-08-06T02:53:48;11.63;;;6.93;;
78561;SDS011;68963;52.138;5.446;2023-08-06T02:56:15;17.60;;;7.55;;
78561;SDS011;68963;52.138;5.446;2023-08-06T02:58:42;14.90;;;7.47;;
78561;SDS011;68963;52.138;5.446;2023-08-06T03:01:08;13.85;;;7.90;;
78561;SDS011;68963;52.138;5.446;2023-08-06T03:03:35;16.38;;;8.15;;
78561;SDS011;68963;52.138;5.446;2023-08-06T03:06:02;14.40;;;8.23;;
78561;SDS011;68963;52.138;5.446;2023-08-06T03:08:28;13.50;;;7.72;;
78561;SDS011;68963;52.138;5.446;2023-08-06T03:10:55;14.85;;;8.02;;
78561;SDS011;68963;52.138;5.446;2023-08-06T03:13:22;14.60;;;7.65;;
78561;SDS011;68963;52.138;5.446;2023-08-06T03:15:55;15.40;;;8.00;;
78561;SDS011;68963;52.138;5.446;2023-08-06T03:18:23;13.48;;;7.65;;
78561;SDS011;68963;52.138;5.446;2023-08-06T03:20:50;14.57;;;8.10;;
78561;SDS011;68963;52.138;5.446;2023-08-06T03:23:16;16.00;;;8.02;;
78561;SDS011;68963;52.138;5.446;2023-08-06T03:25:43;15.32;;;7.72;;
78561;SDS011;68963;52.138;5.446;2023-08-06T03:28:10;13.18;;;7.45;;
78561;SDS011;68963;52.138;5.446;2023-08-06T03:30:38;16.08;;;7.80;;
78561;SDS011;68963;52.138;5.446;2023-08-06T03:33:05;13.65;;;8.32;;
78561;SDS011;68963;52.138;5.446;2023-08-06T03:35:31;15.80;;;8.35;;
78561;SDS011;68963;52.138;5.446;2023-08-06T03:37:58;16.70;;;8.32;;
78561;SDS011;68963;52.138;5.446;2023-08-06T03:40:24;16.15;;;8.90;;
78561;SDS011;68963;52.138;5.446;2023-08-06T03:42:51;15.65;;;8.57;;
78561;SDS011;68963;52.138;5.446;2023-08-06T03:45:17;17.08;;;9.20;;
78561;SDS011;68963;52.138;5.446;2023-08-06T03:47:44;14.73;;;8.35;;
78561;SDS011;68963;52.138;5.446;2023-08-06T03:50:11;16.77;;;9.15;;
78561;SDS011;68963;52.138;5.446;2023-08-06T03:52:37;16.20;;;8.80;;
78561;SDS011;68963;52.138;5.446;2023-08-06T03:55:04;17.73;;;9.25;;
78561;SDS011;68963;52.138;5.446;2023-08-06T03:57:30;18.00;;;9.48;;
78561;SDS011;68963;52.138;5.446;2023-08-06T03:59:57;18.48;;;9.35;;
78561;SDS011;68963;52.138;5.446;2023-08-06T04:02:24;17.38;;;9.15;;
78561;SDS011;68963;52.138;5.446;2023-08-06T04:04:50;17.73;;;9.65;;
78561;SDS011;68963;52.138;5.446;2023-08-06T04:07:19;18.27;;;10.60;;
78561;SDS011;68963;52.138;5.446;2023-08-06T04:09:52;19.38;;;10.18;;
78561;SDS011;68963;52.138;5.446;2023-08-06T04:12:20;21.00;;;10.30;;
78561;SDS011;68963;52.138;5.446;2023-08-06T04:14:48;18.98;;;10.60;;
78561;SDS011;68963;52.138;5.446;2023-08-06T04:17:16;18.33;;;9.88;;
78561;SDS011;68963;52.138;5.446;2023-08-06T04:19:42;23.05;;;10.88;;
78561;SDS011;68963;52.138;5.446;2023-08-06T04:22:09;21.38;;;9.93;;
78561;SDS011;68963;52.138;5.446;2023-08-06T04:24:35;19.92;;;10.77;;
78561;SDS011;68963;52.138;5.446;2023-08-06T04:27:02;19.63;;;10.45;;
78561;SDS011;68963;52.138;5.446;2023-08-06T04:29:29;21.30;;;11.05;;
78561;SDS011;68963;52.138;5.446;2023-08-06T04:31:55;21.00;;;11.70;;
78561;SDS011;68963;52.138;5.446;2023-08-06T04:34:22;21.80;;;11.07;;
78561;SDS011;68963;52.138;5.446;2023-08-06T04:36:48;20.98;;;10.95;;
78561;SDS011;68963;52.138;5.446;2023-08-06T04:39:15;20.77;;;11.32;;
78561;SDS011;68963;52.138;5.446;2023-08-06T04:41:42;24.80;;;11.73;;
78561;SDS011;68963;52.138;5.446;2023-08-06T04:44:08;21.80;;;11.43;;
78561;SDS011;68963;52.138;5.446;2023-08-06T04:46:35;21.67;;;11.05;;
78561;SDS011;68963;52.138;5.446;2023-08-06T04:49:02;21.70;;;11.52;;
78561;SDS011;68963;52.138;5.446;2023-08-06T04:51:28;21.23;;;11.48;;
78561;SDS011;68963;52.138;5.446;2023-08-06T04:53:56;24.17;;;11.43;;
78561;SDS011;68963;52.138;5.446;2023-08-06T04:56:23;21.83;;;11.55;;
78561;SDS011;68963;52.138;5.446;2023-08-06T04:58:50;22.80;;;11.80;;
78561;SDS011;68963;52.138;5.446;2023-08-06T05:01:16;20.85;;;11.65;;
78561;SDS011;68963;52.138;5.446;2023-08-06T05:03:43;21.13;;;11.07;;
78561;SDS011;68963;52.138;5.446;2023-08-06T05:06:10;20.95;;;11.52;;
78561;SDS011;68963;52.138;5.446;2023-08-06T05:08:36;22.23;;;12.77;;
78561;SDS011;68963;52.138;5.446;2023-08-06T05:11:03;22.92;;;12.15;;
78561;SDS011;68963;52.138;5.446;2023-08-06T05:13:30;21.30;;;11.60;;
78561;SDS011;68963;52.138;5.446;2023-08-06T05:15:56;22.08;;;11.57;;
78561;SDS011;68963;52.138;5.446;2023-08-06T05:18:23;19.38;;;11.13;;
78561;SDS011;68963;52.138;5.446;2023-08-06T05:20:49;24.63;;;12.60;;
78561;SDS011;68963;52.138;5.446;2023-08-06T05:23:16;22.95;;;12.52;;
78561;SDS011;68963;52.138;5.446;2023-08-06T05:25:43;22.40;;;11.82;;
78561;SDS011;68963;52.138;5.446;2023-08-06T05:28:09;22.73;;;11.48;;
78561;SDS011;68963;52.138;5.446;2023-08-06T05:30:40;22.05;;;12.43;;
78561;SDS011;68963;52.138;5.446;2023-08-06T05:33:07;22.92;;;12.85;;
78561;SDS011;68963;52.138;5.446;2023-08-06T05:35:33;21.70;;;12.15;;
78561;SDS011;68963;52.138;5.446;2023-08-06T05:38:00;22.65;;;12.15;;
78561;SDS011;68963;52.138;5.446;2023-08-06T05:40:27;24.05;;;12.45;;
78561;SDS011;68963;52.138;5.446;2023-08-06T05:42:54;21.25;;;11.80;;
78561;SDS011;68963;52.138;5.446;2023-08-06T05:45:21;21.48;;;12.18;;
78561;SDS011;68963;52.138;5.446;2023-08-06T05:47:47;23.77;;;13.02;;
78561;SDS011;68963;52.138;5.446;2023-08-06T05:50:14;20.73;;;11.95;;
78561;SDS011;68963;52.138;5.446;2023-08-06T05:52:41;22.42;;;12.05;;
78561;SDS011;68963;52.138;5.446;2023-08-06T05:55:08;20.10;;;11.40;;
78561;SDS011;68963;52.138;5.446;2023-08-06T05:57:34;20.25;;;11.38;;
78561;SDS011;68963;52.138;5.446;2023-08-06T06:00:01;21.33;;;11.98;;
78561;SDS011;68963;52.138;5.446;2023-08-06T06:02:29;20.98;;;11.98;;
78561;SDS011;68963;52.138;5.446;2023-08-06T06:04:55;23.20;;;11.40;;
78561;SDS011;68963;52.138;5.446;2023-08-06T06:07:22;20.60;;;11.70;;
78561;SDS011;68963;52.138;5.446;2023-08-06T06:09:49;22.58;;;12.35;;
78561;SDS011;68963;52.138;5.446;2023-08-06T06:12:15;20.90;;;11.90;;
78561;SDS011;68963;52.138;5.446;2023-08-06T06:14:42;21.73;;;12.10;;
78561;SDS011;68963;52.138;5.446;2023-08-06T06:17:08;21.13;;;11.88;;
78561;SDS011;68963;52.138;5.446;2023-08-06T06:19:35;21.90;;;11.48;;
78561;SDS011;68963;52.138;5.446;2023-08-06T06:22:01;23.90;;;12.35;;
78561;SDS011;68963;52.138;5.446;2023-08-06T06:24:28;22.45;;;11.68;;
78561;SDS011;68963;52.138;5.446;2023-08-06T06:26:54;22.52;;;12.27;;
78561;SDS011;68963;52.138;5.446;2023-08-06T06:29:21;22.70;;;11.55;;
78561;SDS011;68963;52.138;5.446;2023-08-06T06:31:48;22.05;;;11.95;;
78561;SDS011;68963;52.138;5.446;2023-08-06T06:34:14;21.55;;;12.30;;
78561;SDS011;68963;52.138;5.446;2023-08-06T06:36:41;23.45;;;11.93;;
78561;SDS011;68963;52.138;5.446;2023-08-06T06:39:07;21.00;;;11.70;;
78561;SDS011;68963;52.138;5.446;2023-08-06T06:41:34;23.60;;;12.27;;
78561;SDS011;68963;52.138;5.446;2023-08-06T06:44:01;23.42;;;12.40;;
78561;SDS011;68963;52.138;5.446;2023-08-06T06:46:27;22.98;;;12.10;;
78561;SDS011;68963;52.138;5.446;2023-08-06T06:48:54;21.55;;;12.23;;
78561;SDS011;68963;52.138;5.446;2023-08-06T06:51:21;22.17;;;11.75;;
78561;SDS011;68963;52.138;5.446;2023-08-06T06:53:47;22.83;;;11.60;;
78561;SDS011;68963;52.138;5.446;2023-08-06T06:56:14;22.73;;;11.45;;
78561;SDS011;68963;52.138;5.446;2023-08-06T06:58:40;20.27;;;11.95;;
78561;SDS011;68963;52.138;5.446;2023-08-06T07:01:07;22.13;;;12.40;;
78561;SDS011;68963;52.138;5.446;2023-08-06T07:03:36;23.15;;;12.57;;
78561;SDS011;68963;52.138;5.446;2023-08-06T07:06:02;20.83;;;11.38;;
78561;SDS011;68963;52.138;5.446;2023-08-06T07:08:29;21.48;;;11.70;;
78561;SDS011;68963;52.138;5.446;2023-08-06T07:11:00;22.80;;;11.93;;
78561;SDS011;68963;52.138;5.446;2023-08-06T07:13:29;21.27;;;11.60;;
78561;SDS011;68963;52.138;5.446;2023-08-06T07:15:56;21.45;;;11.60;;
78561;SDS011;68963;52.138;5.446;2023-08-06T07:18:23;26.50;;;12.80;;
78561;SDS011;68963;52.138;5.446;2023-08-06T07:20:50;23.95;;;11.95;;
78561;SDS011;68963;52.138;5.446;2023-08-06T07:23:18;24.42;;;12.45;;
78561;SDS011;68963;52.138;5.446;2023-08-06T07:25:46;20.95;;;11.93;;
78561;SDS011;68963;52.138;5.446;2023-08-06T07:28:13;21.23;;;11.80;;
78561;SDS011;68963;52.138;5.446;2023-08-06T07:30:41;20.90;;;11.55;;
78561;SDS011;68963;52.138;5.446;2023-08-06T07:33:08;21.90;;;11.70;;
78561;SDS011;68963;52.138;5.446;2023-08-06T07:35:35;20.88;;;11.43;;
78561;SDS011;68963;52.138;5.446;2023-08-06T07:38:02;20.60;;;11.52;;
78561;SDS011;68963;52.138;5.446;2023-08-06T07:40:29;20.27;;;10.45;;
78561;SDS011;68963;52.138;5.446;2023-08-06T07:42:55;21.05;;;11.10;;
78561;SDS011;68963;52.138;5.446;2023-08-06T07:45:22;20.63;;;10.77;;
78561;SDS011;68963;52.138;5.446;2023-08-06T07:47:49;18.50;;;10.35;;
78561;SDS011;68963;52.138;5.446;2023-08-06T07:50:15;20.42;;;11.57;;
78561;SDS011;68963;52.138;5.446;2023-08-06T07:52:42;19.98;;;11.20;;
78561;SDS011;68963;52.138;5.446;2023-08-06T07:55:09;19.50;;;10.65;;
78561;SDS011;68963;52.138;5.446;2023-08-06T07:57:35;20.45;;;10.48;;
78561;SDS011;68963;52.138;5.446;2023-08-06T08:00:04;18.42;;;9.93;;
78561;SDS011;68963;52.138;5.446;2023-08-06T08:02:31;20.90;;;10.65;;
78561;SDS011;68963;52.138;5.446;2023-08-06T08:04:58;19.58;;;10.52;;
78561;SDS011;68963;52.138;5.446;2023-08-06T08:07:25;20.50;;;10.55;;
78561;SDS011;68963;52.138;5.446;2023-08-06T08:09:53;18.48;;;10.30;;
78561;SDS011;68963;52.138;5.446;2023-08-06T08:12:20;19.75;;;10.68;;
78561;SDS011;68963;52.138;5.446;2023-08-06T08:14:47;17.90;;;10.13;;
78561;SDS011;68963;52.138;5.446;2023-08-06T08:17:14;19.77;;;10.75;;
78561;SDS011;68963;52.138;5.446;2023-08-06T08:19:40;17.92;;;10.02;;
78561;SDS011;68963;52.138;5.446;2023-08-06T08:22:07;19.25;;;10.98;;
78561;SDS011;68963;52.138;5.446;2023-08-06T08:24:34;20.77;;;11.15;;
78561;SDS011;68963;52.138;5.446;2023-08-06T08:27:01;18.08;;;10.02;;
78561;SDS011;68963;52.138;5.446;2023-08-06T08:29:27;17.70;;;9.88;;
78561;SDS011;68963;52.138;5.446;2023-08-06T08:31:54;18.08;;;9.65;;
78561;SDS011;68963;52.138;5.446;2023-08-06T08:34:21;19.33;;;10.00;;
78561;SDS011;68963;52.138;5.446;2023-08-06T08:36:47;19.75;;;9.80;;
78561;SDS011;68963;52.138;5.446;2023-08-06T08:41:42;18.20;;;9.88;;
78561;SDS011;68963;52.138;5.446;2023-08-06T08:44:09;20.45;;;10.07;;
78561;SDS011;68963;52.138;5.446;2023-08-06T08:46:40;14.93;;;8.20;;
78561;SDS011;68963;52.138;5.446;2023-08-06T08:49:07;9.73;;;4.90;;
78561;SDS011;68963;52.138;5.446;2023-08-06T08:51:34;8.48;;;4.63;;
78561;SDS011;68963;52.138;5.446;2023-08-06T08:54:04;5.82;;;2.97;;
78561;SDS011;68963;52.138;5.446;2023-08-06T08:56:34;4.68;;;2.53;;
78561;SDS011;68963;52.138;5.446;2023-08-06T08:59:01;4.57;;;2.58;;
78561;SDS011;68963;52.138;5.446;2023-08-06T09:01:27;6.28;;;2.30;;
78561;SDS011;68963;52.138;5.446;2023-08-06T09:03:55;4.85;;;2.05;;
78561;SDS011;68963;52.138;5.446;2023-08-06T09:06:24;4.40;;;2.05;;
78561;SDS011;68963;52.138;5.446;2023-08-06T09:09:10;4.80;;;2.20;;
78561;SDS011;68963;52.138;5.446;2023-08-06T09:11:42;4.60;;;2.03;;
78561;SDS011;68963;52.138;5.446;2023-08-06T09:14:10;5.57;;;2.10;;
78561;SDS011;68963;52.138;5.446;2023-08-06T09:16:37;5.18;;;1.90;;
78561;SDS011;68963;52.138;5.446;2023-08-06T09:19:10;5.15;;;2.20;;
78561;SDS011;68963;52.138;5.446;2023-08-06T09:21:45;4.68;;;2.13;;
78561;SDS011;68963;52.138;5.446;2023-08-06T09:24:15;5.53;;;2.22;;
78561;SDS011;68963;52.138;5.446;2023-08-06T09:26:43;5.70;;;2.75;;
78561;SDS011;68963;52.138;5.446;2023-08-06T09:29:10;5.57;;;2.90;;
78561;SDS011;68963;52.138;5.446;2023-08-06T09:31:48;5.15;;;2.80;;
78561;SDS011;68963;52.138;5.446;2023-08-06T09:36:46;6.45;;;2.88;;
78561;SDS011;68963;52.138;5.446;2023-08-06T09:39:14;6.15;;;3.05;;
78561;SDS011;68963;52.138;5.446;2023-08-06T09:41:42;5.72;;;3.08;;
78561;SDS011;68963;52.138;5.446;2023-08-06T09:44:20;5.78;;;2.97;;
78561;SDS011;68963;52.138;5.446;2023-08-06T09:46:51;7.57;;;3.20;;
78561;SDS011;68963;52.138;5.446;2023-08-06T09:49:19;8.20;;;3.17;;
78561;SDS011;68963;52.138;5.446;2023-08-06T09:51:50;6.05;;;3.03;;
78561;SDS011;68963;52.138;5.446;2023-08-06T09:54:20;6.93;;;3.28;;
78561;SDS011;68963;52.138;5.446;2023-08-06T09:56:53;7.07;;;3.78;;
78561;SDS011;68963;52.138;5.446;2023-08-06T09:59:21;6.97;;;3.78;;
78561;SDS011;68963;52.138;5.446;2023-08-06T10:01:48;8.35;;;3.85;;
78561;SDS011;68963;52.138;5.446;2023-08-06T10:04:15;7.40;;;3.90;;
78561;SDS011;68963;52.138;5.446;2023-08-06T10:06:50;9.25;;;4.20;;
78561;SDS011;68963;52.138;5.446;2023-08-06T10:09:18;7.85;;;4.38;;
78561;SDS011;68963;52.138;5.446;2023-08-06T10:11:48;8.48;;;4.00;;
78561;SDS011;68963;52.138;5.446;2023-08-06T10:16:56;8.20;;;4.55;;
78561;SDS011;68963;52.138;5.446;2023-08-06T10:19:24;8.50;;;4.28;;
78561;SDS011;68963;52.138;5.446;2023-08-06T10:24:48;9.02;;;4.78;;
78561;SDS011;68963;52.138;5.446;2023-08-06T10:27:19;8.68;;;4.50;;
78561;SDS011;68963;52.138;5.446;2023-08-06T10:32:56;9.32;;;4.72;;
78561;SDS011;68963;52.138;5.446;2023-08-06T10:35:30;9.50;;;4.60;;
78561;SDS011;68963;52.138;5.446;2023-08-06T10:38:19;10.18;;;4.63;;
78561;SDS011;68963;52.138;5.446;2023-08-06T10:40:48;9.00;;;4.25;;
78561;SDS011;68963;52.138;5.446;2023-08-06T10:45:52;9.90;;;4.35;;
78561;SDS011;68963;52.138;5.446;2023-08-06T10:51:15;8.82;;;3.83;;
78561;SDS011;68963;52.138;5.446;2023-08-06T10:53:43;9.98;;;4.22;;
78561;SDS011;68963;52.138;5.446;2023-08-06T10:56:11;9.52;;;4.07;;
78561;SDS011;68963;52.138;5.446;2023-08-06T10:58:39;8.05;;;3.33;;
78561;SDS011;68963;52.138;5.446;2023-08-06T11:01:06;8.68;;;3.88;;
78561;SDS011;68963;52.138;5.446;2023-08-06T11:03:33;9.88;;;3.42;;
78561;SDS011;68963;52.138;5.446;2023-08-06T11:06:00;9.20;;;4.00;;
78561;SDS011;68963;52.138;5.446;2023-08-06T11:08:29;6.57;;;2.88;;
78561;SDS011;68963;52.138;5.446;2023-08-06T11:11:09;7.57;;;3.28;;
78561;SDS011;68963;52.138;5.446;2023-08-06T11:13:43;7.53;;;2.67;;
78561;SDS011;68963;52.138;5.446;2023-08-06T11:16:16;8.00;;;2.80;;
78561;SDS011;68963;52.138;5.446;2023-08-06T11:18:45;7.18;;;2.90;;
78561;SDS011;68963;52.138;5.446;2023-08-06T11:21:13;8.02;;;3.00;;
78561;SDS011;68963;52.138;5.446;2023-08-06T11:23:40;7.80;;;2.90;;
78561;SDS011;68963;52.138;5.446;2023-08-06T11:26:07;9.02;;;3.28;;
78561;SDS011;68963;52.138;5.446;2023-08-06T11:28:34;6.82;;;2.50;;
78561;SDS011;68963;52.138;5.446;2023-08-06T11:31:01;8.27;;;2.67;;
78561;SDS011;68963;52.138;5.446;2023-08-06T11:33:29;5.22;;;2.30;;
78561;SDS011;68963;52.138;5.446;2023-08-06T11:35:56;6.38;;;3.00;;
78561;SDS011;68963;52.138;5.446;2023-08-06T11:38:25;6.25;;;2.40;;
78561;SDS011;68963;52.138;5.446;2023-08-06T11:40:53;5.43;;;2.30;;
78561;SDS011;68963;52.138;5.446;2023-08-06T11:43:20;5.95;;;2.42;;
78561;SDS011;68963;52.138;5.446;2023-08-06T11:45:50;6.95;;;2.20;;
78561;SDS011;68963;52.138;5.446;2023-08-06T11:48:18;6.10;;;2.13;;
78561;SDS011;68963;52.138;5.446;2023-08-06T11:50:45;5.93;;;2.40;;
78561;SDS011;68963;52.138;5.446;2023-08-06T11:53:12;5.13;;;2.13;;
78561;SDS011;68963;52.138;5.446;2023-08-06T11:55:42;5.53;;;2.30;;
78561;SDS011;68963;52.138;5.446;2023-08-06T11:58:10;6.90;;;2.25;;
78561;SDS011;68963;52.138;5.446;2023-08-06T12:00:38;6.85;;;2.10;;
78561;SDS011;68963;52.138;5.446;2023-08-06T12:03:05;6.85;;;2.30;;
78561;SDS011;68963;52.138;5.446;2023-08-06T12:05:32;4.90;;;2.15;;
78561;SDS011;68963;52.138;5.446;2023-08-06T12:08:02;5.60;;;2.42;;
78561;SDS011;68963;52.138;5.446;2023-08-06T12:10:30;5.78;;;1.85;;
78561;SDS011;68963;52.138;5.446;2023-08-06T12:12:58;6.82;;;2.42;;
78561;SDS011;68963;52.138;5.446;2023-08-06T12:15:26;6.25;;;2.00;;
78561;SDS011;68963;52.138;5.446;2023-08-06T12:17:52;7.55;;;2.03;;
78561;SDS011;68963;52.138;5.446;2023-08-06T12:20:19;6.93;;;1.95;;
78561;SDS011;68963;52.138;5.446;2023-08-06T12:22:45;5.78;;;1.98;;
78561;SDS011;68963;52.138;5.446;2023-08-06T12:25:13;7.43;;;1.90;;
78561;SDS011;68963;52.138;5.446;2023-08-06T12:27:40;5.30;;;1.98;;
78561;SDS011;68963;52.138;5.446;2023-08-06T12:30:08;6.80;;;1.98;;
78561;SDS011;68963;52.138;5.446;2023-08-06T12:32:35;5.82;;;1.80;;
78561;SDS011;68963;52.138;5.446;2023-08-06T12:35:03;4.78;;;1.65;;
78561;SDS011;68963;52.138;5.446;2023-08-06T12:37:31;6.45;;;2.28;;
78561;SDS011;68963;52.138;5.446;2023-08-06T12:39:57;5.50;;;1.70;;
78561;SDS011;68963;52.138;5.446;2023-08-06T12:42:24;4.57;;;1.63;;
78561;SDS011;68963;52.138;5.446;2023-08-06T12:44:50;4.55;;;1.60;;
78561;SDS011;68963;52.138;5.446;2023-08-06T12:47:17;4.97;;;1.90;;
78561;SDS011;68963;52.138;5.446;2023-08-06T12:49:44;6.38;;;1.80;;
78561;SDS011;68963;52.138;5.446;2023-08-06T12:52:11;9.55;;;1.95;;
78561;SDS011;68963;52.138;5.446;2023-08-06T12:54:41;5.00;;;1.60;;
78561;SDS011;68963;52.138;5.446;2023-08-06T12:57:08;7.70;;;1.85;;
78561;SDS011;68963;52.138;5.446;2023-08-06T12:59:34;5.18;;;1.65;;
78561;SDS011;68963;52.138;5.446;2023-08-06T13:02:03;4.80;;;1.95;;
78561;SDS011;68963;52.138;5.446;2023-08-06T13:04:30;6.80;;;1.77;;
78561;SDS011;68963;52.138;5.446;2023-08-06T13:06:57;6.00;;;1.73;;
78561;SDS011;68963;52.138;5.446;2023-08-06T13:09:24;4.43;;;1.83;;
78561;SDS011;68963;52.138;5.446;2023-08-06T13:11:52;6.05;;;1.98;;
78561;SDS011;68963;52.138;5.446;2023-08-06T13:14:19;5.53;;;2.10;;
78561;SDS011;68963;52.138;5.446;2023-08-06T13:16:46;5.97;;;1.85;;
78561;SDS011;68963;52.138;5.446;2023-08-06T13:19:12;6.63;;;2.22;;
78561;SDS011;68963;52.138;5.446;2023-08-06T13:24:06;5.72;;;2.17;;
78561;SDS011;68963;52.138;5.446;2023-08-06T13:26:34;6.95;;;2.30;;
78561;SDS011;68963;52.138;5.446;2023-08-06T13:29:00;6.28;;;2.17;;
78561;SDS011;68963;52.138;5.446;2023-08-06T13:31:28;5.65;;;2.13;;
78561;SDS011;68963;52.138;5.446;2023-08-06T13:33:56;5.88;;;2.40;;
78561;SDS011;68963;52.138;5.446;2023-08-06T13:36:25;6.40;;;2.17;;
78561;SDS011;68963;52.138;5.446;2023-08-06T13:38:53;5.68;;;1.92;;
78561;SDS011;68963;52.138;5.446;2023-08-06T13:41:19;6.45;;;2.28;;
78561;SDS011;68963;52.138;5.446;2023-08-06T13:43:46;7.22;;;2.42;;
78561;SDS011;68963;52.138;5.446;2023-08-06T13:46:13;6.38;;;2.50;;
78561;SDS011;68963;52.138;5.446;2023-08-06T13:48:42;5.80;;;2.58;;
78561;SDS011;68963;52.138;5.446;2023-08-06T13:51:10;6.20;;;2.50;;
78561;SDS011;68963;52.138;5.446;2023-08-06T13:56:05;5.75;;;2.22;;
78561;SDS011;68963;52.138;5.446;2023-08-06T13:58:33;8.77;;;2.50;;
78561;SDS011;68963;52.138;5.446;2023-08-06T14:01:21;5.95;;;2.53;;
78561;SDS011;68963;52.138;5.446;2023-08-06T14:03:48;6.00;;;2.28;;
78561;SDS011;68963;52.138;5.446;2023-08-06T14:06:15;6.43;;;2.45;;
78561;SDS011;68963;52.138;5.446;2023-08-06T14:08:42;5.88;;;2.38;;
78561;SDS011;68963;52.138;5.446;2023-08-06T14:11:10;6.47;;;2.30;;
78561;SDS011;68963;52.138;5.446;2023-08-06T14:13:37;5.55;;;2.10;;
78561;SDS011;68963;52.138;5.446;2023-08-06T14:16:04;5.57;;;1.88;;
78561;SDS011;68963;52.138;5.446;2023-08-06T14:18:30;6.03;;;2.00;;
78561;SDS011;68963;52.138;5.446;2023-08-06T14:20:57;6.03;;;2.03;;
78561;SDS011;68963;52.138;5.446;2023-08-06T14:23:24;5.78;;;2.08;;
78561;SDS011;68963;52.138;5.446;2023-08-06T14:25:51;5.60;;;2.50;;
78561;SDS011;68963;52.138;5.446;2023-08-06T14:28:21;5.22;;;2.10;;
78561;SDS011;68963;52.138;5.446;2023-08-06T14:30:47;5.82;;;2.10;;
78561;SDS011;68963;52.138;5.446;2023-08-06T14:33:14;4.72;;;2.08;;
78561;SDS011;68963;52.138;5.446;2023-08-06T14:35:52;7.00;;;2.83;;
78561;SDS011;68963;52.138;5.446;2023-08-06T14:38:19;7.35;;;2.17;;
78561;SDS011;68963;52.138;5.446;2023-08-06T14:40:46;7.82;;;2.00;;
78561;SDS011;68963;52.138;5.446;2023-08-06T14:43:13;7.97;;;2.40;;
78561;SDS011;68963;52.138;5.446;2023-08-06T14:45:41;7.93;;;2.40;;
78561;SDS011;68963;52.138;5.446;2023-08-06T14:48:08;4.90;;;2.33;;
78561;SDS011;68963;52.138;5.446;2023-08-06T14:50:34;6.43;;;2.20;;
78561;SDS011;68963;52.138;5.446;2023-08-06T14:53:02;6.90;;;2.28;;
78561;SDS011;68963;52.138;5.446;2023-08-06T14:55:30;6.80;;;2.40;;
78561;SDS011;68963;52.138;5.446;2023-08-06T14:57:58;5.63;;;2.20;;
78561;SDS011;68963;52.138;5.446;2023-08-06T15:00:30;8.48;;;2.40;;
78561;SDS011;68963;52.138;5.446;2023-08-06T15:02:57;5.40;;;2.20;;
78561;SDS011;68963;52.138;5.446;2023-08-06T15:05:24;5.47;;;2.40;;
78561;SDS011;68963;52.138;5.446;2023-08-06T15:10:19;6.47;;;2.13;;
78561;SDS011;68963;52.138;5.446;2023-08-06T15:12:53;5.10;;;2.08;;